^^
Station Historical Data
 
Daily Summary for August 28, 2014 Units:  English    Metric   Both
« Previous Day
Next Day »
Daily Weekly Monthly Yearly Custom
  Current: High: Low: Average:
Temperature: 59.5 °F 75.9 °F 56.5 °F 65.6 °F
Dew Point: 51.6 °F 62.5 °F 44.8 °F 54.3 °F
Humidity: 75% 97% 36% 71%
Wind Speed: 0.6mph 7.0mph 0.1mph 2.8mph
Wind Gust: 0.7mph 9.8mph - -
WindNNW - - South
Pressure: 30.14 in 30.14 in 30.06 in -
Precipitation: 0.00 in      
Historical Graphs
 
 
Tabular Data for August 28, 2014
Time Temperature Dew Point Pressure Wind Wind Speed Wind Gust Humidity Rainfall Rate (Hourly)
00:01 66.7 °F 62.4 °F 30.08 in NW 0.7 mph 1.6 mph 86% 0.00 in
00:02 66.7 °F 62.4 °F 30.08 in NW 0.6 mph 1.6 mph 86% 0.00 in
00:07 66.7 °F 62.4 °F 30.08 in Calm     86% 0.00 in
00:12 66.2 °F 62.2 °F 30.08 in South 0.2 mph 0.7 mph 87% 0.00 in
00:17 66.0 °F 62.4 °F 30.07 in South 0.3 mph 0.7 mph 88% 0.00 in
00:22 65.8 °F 62.5 °F 30.07 in West 0.1 mph 0.7 mph 89% 0.00 in
00:27 65.5 °F 62.2 °F 30.08 in Calm     89% 0.00 in
00:32 65.3 °F 62.0 °F 30.08 in Calm     89% 0.00 in
00:37 65.1 °F 61.8 °F 30.07 in North 0.3 mph 1.6 mph 89% 0.00 in
00:42 64.9 °F 61.9 °F 30.07 in North 0.3 mph 1.6 mph 90% 0.00 in
00:47 64.7 °F 61.8 °F 30.07 in Calm   0.7 mph 90% 0.00 in
00:52 64.6 °F 61.6 °F 30.07 in Calm     90% 0.00 in
00:57 64.4 °F 61.4 °F 30.07 in North 0.1 mph 1.6 mph 90% 0.00 in
01:02 64.2 °F 61.2 °F 30.06 in NNW 0.4 mph 1.6 mph 90% 0.00 in
01:07 64.2 °F 61.2 °F 30.07 in NW 0.7 mph 1.6 mph 90% 0.00 in
01:12 63.7 °F 61.0 °F 30.07 in NW 0.6 mph 0.7 mph 91% 0.00 in
01:17 63.5 °F 60.8 °F 30.07 in NW 0.3 mph 0.7 mph 91% 0.00 in
01:22 63.5 °F 60.8 °F 30.07 in NNW 0.5 mph 1.6 mph 91% 0.00 in
01:27 63.3 °F 61.0 °F 30.07 in NNW 0.6 mph 1.6 mph 92% 0.00 in
01:32 63.1 °F 60.8 °F 30.07 in NNW 0.6 mph 1.6 mph 92% 0.00 in
01:37 62.9 °F 60.6 °F 30.06 in NNW 0.7 mph 1.6 mph 92% 0.00 in
01:42 62.8 °F 60.4 °F 30.07 in NW 0.6 mph 1.6 mph 92% 0.00 in
01:47 62.8 °F 60.4 °F 30.06 in NW 0.4 mph 1.6 mph 92% 0.00 in
01:52 62.4 °F 60.1 °F 30.06 in WNW 0.2 mph 0.7 mph 92% 0.00 in
01:57 62.2 °F 59.9 °F 30.06 in WNW 0.4 mph 1.6 mph 92% 0.00 in
02:02 62.2 °F 59.9 °F 30.06 in NNW 0.6 mph 1.6 mph 92% 0.00 in
02:07 62.0 °F 60.0 °F 30.06 in North 0.7 mph 0.7 mph 93% 0.00 in
02:12 62.2 °F 60.2 °F 30.06 in NNW 0.5 mph 0.7 mph 93% 0.00 in
02:17 61.9 °F 59.8 °F 30.06 in NW 0.3 mph 0.7 mph 93% 0.00 in
02:22 61.9 °F 59.8 °F 30.06 in NW 0.2 mph 0.7 mph 93% 0.00 in
02:27 61.7 °F 59.7 °F 30.06 in NW 0.2 mph 0.7 mph 93% 0.00 in
02:32 61.5 °F 59.5 °F 30.06 in NW 0.1 mph 0.7 mph 93% 0.00 in
02:37 61.5 °F 59.5 °F 30.06 in Calm     93% 0.00 in
02:42 61.3 °F 59.3 °F 30.06 in Calm     93% 0.00 in
02:47 61.1 °F 59.4 °F 30.06 in Calm     94% 0.00 in
02:52 61.0 °F 59.2 °F 30.06 in Calm     94% 0.00 in
02:57 60.8 °F 59.1 °F 30.06 in Calm     94% 0.00 in
03:02 60.8 °F 59.1 °F 30.07 in Calm     94% 0.00 in
03:07 60.8 °F 59.1 °F 30.07 in Calm     94% 0.00 in
03:12 60.6 °F 58.9 °F 30.07 in Calm     94% 0.00 in
03:17 60.4 °F 58.7 °F 30.07 in Calm     94% 0.00 in
03:22 60.4 °F 58.7 °F 30.07 in Calm     94% 0.00 in
03:27 60.2 °F 58.5 °F 30.06 in Calm     94% 0.00 in
03:32 60.1 °F 58.3 °F 30.06 in Calm     94% 0.00 in
03:37 60.1 °F 58.3 °F 30.07 in Calm     94% 0.00 in
03:42 59.9 °F 58.2 °F 30.06 in Calm     94% 0.00 in
03:47 59.9 °F 58.2 °F 30.06 in Calm     94% 0.00 in
03:52 59.7 °F 58.0 °F 30.07 in Calm     94% 0.00 in
03:57 59.5 °F 57.8 °F 30.06 in Calm     94% 0.00 in
04:02 59.5 °F 57.8 °F 30.06 in Calm     94% 0.00 in
04:07 59.3 °F 57.9 °F 30.07 in Calm     95% 0.00 in
04:12 59.3 °F 57.9 °F 30.06 in Calm     95% 0.00 in
04:17 59.2 °F 57.7 °F 30.07 in Calm     95% 0.00 in
04:22 59.2 °F 57.7 °F 30.06 in Calm     95% 0.00 in
04:27 59.0 °F 57.6 °F 30.06 in Calm     95% 0.00 in
04:33 58.8 °F 57.4 °F 30.07 in Calm     95% 0.00 in
04:38 58.8 °F 57.4 °F 30.06 in Calm     95% 0.00 in
04:43 58.6 °F 57.2 °F 30.07 in Calm     95% 0.00 in
04:48 58.4 °F 57.0 °F 30.07 in Calm     95% 0.00 in
04:53 58.4 °F 57.0 °F 30.07 in Calm     95% 0.00 in
04:58 58.3 °F 56.8 °F 30.07 in Calm     95% 0.00 in
05:03 58.3 °F 56.8 °F 30.06 in Calm     95% 0.00 in
05:08 58.1 °F 56.7 °F 30.06 in Calm     95% 0.00 in
05:13 57.9 °F 56.5 °F 30.07 in Calm     95% 0.00 in
05:18 57.9 °F 56.5 °F 30.07 in Calm     95% 0.00 in
05:23 57.7 °F 56.3 °F 30.07 in Calm     95% 0.00 in
05:28 57.7 °F 56.3 °F 30.07 in Calm     95% 0.00 in
05:33 57.5 °F 56.1 °F 30.07 in Calm     95% 0.00 in
05:38 57.4 °F 56.0 °F 30.07 in Calm     95% 0.00 in
05:43 57.4 °F 56.2 °F 30.08 in Calm     96% 0.00 in
05:48 57.4 °F 56.2 °F 30.08 in Calm     96% 0.00 in
05:53 57.2 °F 56.1 °F 30.08 in Calm     96% 0.00 in
05:58 57.0 °F 55.9 °F 30.08 in Calm     96% 0.00 in
06:03 57.0 °F 55.9 °F 30.09 in Calm     96% 0.00 in
06:08 56.8 °F 55.7 °F 30.09 in Calm     96% 0.00 in
06:13 56.8 °F 55.7 °F 30.09 in Calm     96% 0.00 in
06:18 56.6 °F 55.5 °F 30.09 in Calm     96% 0.00 in
06:23 56.6 °F 55.5 °F 30.09 in Calm     96% 0.00 in
06:28 56.6 °F 55.5 °F 30.09 in Calm     96% 0.00 in
06:33 56.5 °F 55.3 °F 30.10 in Calm     96% 0.00 in
06:38 56.5 °F 55.3 °F 30.09 in Calm     96% 0.00 in
06:43 56.5 °F 55.3 °F 30.10 in North 0.2 mph 0.7 mph 96% 0.00 in
06:48 56.5 °F 55.6 °F 30.10 in North 0.4 mph 0.7 mph 97% 0.00 in
06:53 56.5 °F 55.6 °F 30.10 in North 0.3 mph 0.7 mph 97% 0.00 in
06:58 56.5 °F 55.6 °F 30.10 in North 0.1 mph 0.7 mph 97% 0.00 in
07:03 56.5 °F 55.3 °F 30.10 in South 0.3 mph 0.7 mph 96% 0.00 in
07:08 56.6 °F 55.8 °F 30.10 in South 0.5 mph 0.7 mph 97% 0.00 in
07:13 56.6 °F 55.8 °F 30.10 in South 0.3 mph 0.7 mph 97% 0.00 in
07:18 56.6 °F 55.8 °F 30.11 in Calm   0.7 mph 97% 0.00 in
07:23 56.8 °F 56.0 °F 30.11 in Calm     97% 0.00 in
07:28 56.8 °F 56.0 °F 30.11 in Calm     97% 0.00 in
07:33 57.2 °F 56.3 °F 30.11 in Calm     97% 0.00 in
07:38 57.5 °F 56.7 °F 30.11 in Calm     97% 0.00 in
07:43 57.9 °F 57.1 °F 30.11 in Calm     97% 0.00 in
07:48 58.1 °F 57.2 °F 30.11 in South 0.3 mph 0.7 mph 97% 0.00 in
07:53 58.4 °F 57.6 °F 30.11 in South 0.7 mph 1.6 mph 97% 0.00 in
07:58 58.8 °F 57.7 °F 30.12 in SSE 0.9 mph 2.2 mph 96% 0.00 in
08:03 58.8 °F 57.7 °F 30.11 in SSE 0.9 mph 2.2 mph 96% 0.00 in
08:08 59.5 °F 58.1 °F 30.12 in ESE 0.8 mph 1.6 mph 95% 0.00 in
08:14 59.9 °F 58.5 °F 30.12 in ENE 1.2 mph 2.2 mph 95% 0.00 in
08:19 60.4 °F 58.7 °F 30.12 in East 1.3 mph 2.2 mph 94% 0.00 in
08:24 61.0 °F 58.9 °F 30.12 in ESE 1.7 mph 3.1 mph 93% 0.00 in
08:29 61.5 °F 59.2 °F 30.13 in ESE 2.4 mph 3.1 mph 92% 0.00 in
08:34 61.9 °F 58.9 °F 30.13 in SE 2.5 mph 3.1 mph 90% 0.00 in
08:39 62.2 °F 58.6 °F 30.12 in South 2.1 mph 3.1 mph 88% 0.00 in
08:44 62.8 °F 59.2 °F 30.13 in ESE 2.2 mph 3.8 mph 88% 0.00 in
08:49 63.3 °F 59.1 °F 30.12 in East 2.6 mph 3.8 mph 86% 0.00 in
08:54 63.5 °F 58.6 °F 30.13 in ENE 2.4 mph 3.8 mph 84% 0.00 in
08:59 63.8 °F 58.9 °F 30.13 in NNE 2.4 mph 3.8 mph 84% 0.00 in
09:04 63.8 °F 58.9 °F 30.13 in NE 2.8 mph 3.8 mph 84% 0.00 in
09:09 64.9 °F 58.3 °F 30.13 in NE 3.1 mph 3.8 mph 79% 0.00 in
09:14 65.5 °F 58.4 °F 30.13 in ENE 3.1 mph 4.5 mph 78% 0.00 in
09:19 65.8 °F 58.8 °F 30.13 in ENE 3.3 mph 4.5 mph 78% 0.00 in
09:24 65.8 °F 56.9 °F 30.13 in East 3.7 mph 6.9 mph 73% 0.00 in
09:29 66.2 °F 56.9 °F 30.13 in NNE 3.7 mph 6.9 mph 72% 0.00 in
09:34 66.5 °F 56.5 °F 30.13 in East 3.7 mph 6.0 mph 70% 0.00 in
09:39 66.9 °F 56.8 °F 30.13 in ESE 3.9 mph 6.0 mph 70% 0.00 in
09:44 67.4 °F 56.1 °F 30.13 in East 4.1 mph 5.4 mph 67% 0.00 in
09:49 67.6 °F 54.6 °F 30.13 in East 4.3 mph 5.4 mph 63% 0.00 in
09:54 67.6 °F 54.2 °F 30.13 in ENE 4.6 mph 6.0 mph 62% 0.00 in
09:59 67.8 °F 55.2 °F 30.13 in NE 4.2 mph 6.0 mph 64% 0.00 in
10:04 68.0 °F 55.4 °F 30.13 in NNW 3.4 mph 4.5 mph 64% 0.00 in
10:09 68.5 °F 54.6 °F 30.13 in NW 3.2 mph 5.4 mph 61% 0.00 in
10:14 69.1 °F 55.5 °F 30.14 in NNE 3.1 mph 5.4 mph 62% 0.00 in
10:19 69.8 °F 54.8 °F 30.13 in ENE 2.9 mph 3.8 mph 59% 0.00 in
10:24 70.1 °F 54.2 °F 30.13 in East 4.1 mph 8.3 mph 57% 0.00 in
10:29 70.5 °F 55.0 °F 30.14 in East 4.7 mph 8.3 mph 58% 0.00 in
10:34 70.9 °F 54.4 °F 30.13 in ENE 4.4 mph 7.6 mph 56% 0.00 in
10:39 71.6 °F 55.6 °F 30.13 in ENE 4.2 mph 7.6 mph 57% 0.00 in
10:44 71.9 °F 54.4 °F 30.14 in East 4.0 mph 5.4 mph 54% 0.00 in
10:49 71.6 °F 52.0 °F 30.13 in ESE 4.0 mph 5.4 mph 50% 0.00 in
10:54 70.9 °F 52.9 °F 30.14 in SE 3.5 mph 6.0 mph 53% 0.00 in
10:59 70.9 °F 51.3 °F 30.14 in SSE 3.8 mph 7.6 mph 50% 0.00 in
11:04 70.9 °F 51.3 °F 30.13 in SE 5.9 mph 7.6 mph 50% 0.00 in
11:09 71.6 °F 52.5 °F 30.14 in SE 7.0 mph 7.6 mph 51% 0.00 in
11:14 71.0 °F 51.5 °F 30.14 in SE 5.5 mph 7.6 mph 50% 0.00 in
11:19 70.1 °F 52.2 °F 30.13 in SE 4.2 mph 6.0 mph 53% 0.00 in
11:24 69.8 °F 52.4 °F 30.13 in SE 4.1 mph 6.0 mph 54% 0.00 in
11:29 69.6 °F 52.7 °F 30.13 in SE 4.6 mph 6.9 mph 55% 0.00 in
11:34 70.5 °F 53.1 °F 30.13 in SE 4.9 mph 6.9 mph 54% 0.00 in
11:39 71.2 °F 51.1 °F 30.13 in ESE 5.3 mph 9.2 mph 49% 0.00 in
11:44 71.2 °F 51.7 °F 30.13 in ESE 6.1 mph 9.2 mph 50% 0.00 in
11:49 72.1 °F 53.6 °F 30.13 in ESE 5.4 mph 9.2 mph 52% 0.00 in
11:54 72.1 °F 51.9 °F 30.13 in East 4.0 mph 6.0 mph 49% 0.00 in
11:59 71.8 °F 53.2 °F 30.12 in ESE 4.1 mph 5.4 mph 52% 0.00 in
12:05 71.8 °F 53.2 °F 30.12 in ESE 4.8 mph 5.4 mph 52% 0.00 in
12:10 71.4 °F 50.1 °F 30.13 in SE 5.4 mph 7.6 mph 47% 0.00 in
12:15 70.3 °F 49.7 °F 30.12 in SE 6.3 mph 9.2 mph 48% 0.00 in
12:20 70.7 °F 52.7 °F 30.12 in ESE 5.9 mph 9.2 mph 53% 0.00 in
12:25 70.9 °F 50.8 °F 30.13 in ESE 4.5 mph 9.2 mph 49% 0.00 in
12:30 71.4 °F 51.3 °F 30.12 in SE 4.4 mph 6.9 mph 49% 0.00 in
12:35 71.9 °F 51.8 °F 30.12 in SE 4.2 mph 6.9 mph 49% 0.00 in
12:40 71.6 °F 51.4 °F 30.12 in SSE 3.6 mph 5.4 mph 49% 0.00 in
12:45 71.4 °F 51.3 °F 30.12 in SE 3.8 mph 6.9 mph 49% 0.00 in
12:50 72.3 °F 53.7 °F 30.12 in ESE 4.3 mph 6.9 mph 52% 0.00 in
12:55 72.8 °F 50.9 °F 30.12 in SE 4.5 mph 9.2 mph 46% 0.00 in
13:00 72.7 °F 51.9 °F 30.11 in SE 5.1 mph 9.2 mph 48% 0.00 in
13:05 72.7 °F 51.9 °F 30.12 in ENE 6.1 mph 6.9 mph 48% 0.00 in
13:10 72.8 °F 50.9 °F 30.12 in NE 6.2 mph 6.9 mph 46% 0.00 in
13:15 73.2 °F 50.6 °F 30.12 in East 4.5 mph 6.9 mph 45% 0.00 in
13:20 72.7 °F 48.3 °F 30.11 in South 4.2 mph 6.9 mph 42% 0.00 in
13:25 72.7 °F 50.1 °F 30.11 in SSW 4.6 mph 6.9 mph 45% 0.00 in
13:30 72.8 °F 51.5 °F 30.11 in SSE 4.8 mph 6.9 mph 47% 0.00 in
13:35 73.6 °F 52.7 °F 30.11 in SE 5.1 mph 6.9 mph 48% 0.00 in
13:40 74.3 °F 52.2 °F 30.11 in SE 5.0 mph 6.0 mph 46% 0.00 in
13:45 73.4 °F 48.3 °F 30.11 in South 6.0 mph 9.8 mph 41% 0.00 in
13:50 73.2 °F 50.6 °F 30.11 in SSW 5.9 mph 9.8 mph 45% 0.00 in
13:55 74.3 °F 52.2 °F 30.11 in ENE 4.0 mph 6.9 mph 46% 0.00 in
14:00 74.8 °F 49.6 °F 30.11 in ENE 3.6 mph 6.0 mph 41% 0.00 in
14:05 74.8 °F 49.6 °F 30.11 in NNE 3.5 mph 4.5 mph 41% 0.00 in
14:10 75.4 °F 48.7 °F 30.11 in NNE 3.7 mph 5.4 mph 39% 0.00 in
14:15 75.5 °F 49.6 °F 30.11 in East 4.1 mph 5.4 mph 40% 0.00 in
14:20 75.9 °F 48.5 °F 30.11 in ESE 4.2 mph 5.4 mph 38% 0.00 in
14:25 75.7 °F 46.9 °F 30.10 in ESE 4.6 mph 6.0 mph 36% 0.00 in
14:30 75.0 °F 48.4 °F 30.10 in SSE 5.1 mph 6.9 mph 39% 0.00 in
14:35 74.6 °F 47.4 °F 30.10 in SSE 5.1 mph 9.2 mph 38% 0.00 in
14:40 73.9 °F 47.4 °F 30.10 in SSE 4.4 mph 9.2 mph 39% 0.00 in
14:45 74.1 °F 48.9 °F 30.10 in SSE 4.0 mph 5.4 mph 41% 0.00 in
14:50 74.5 °F 50.5 °F 30.10 in SSE 4.1 mph 5.4 mph 43% 0.00 in
14:55 74.3 °F 47.1 °F 30.10 in South 4.8 mph 9.8 mph 38% 0.00 in
15:00 74.1 °F 48.9 °F 30.10 in South 5.6 mph 9.8 mph 41% 0.00 in
15:05 74.1 °F 48.9 °F 30.10 in SE 6.2 mph 6.9 mph 41% 0.00 in
15:10 74.6 °F 48.1 °F 30.10 in SE 6.0 mph 6.9 mph 39% 0.00 in
15:15 75.5 °F 48.9 °F 30.10 in ESE 4.0 mph 6.9 mph 39% 0.00 in
15:20 75.5 °F 46.7 °F 30.10 in WSW 3.3 mph 6.0 mph 36% 0.00 in
15:25 75.2 °F 46.4 °F 30.10 in NW 4.4 mph 6.0 mph 36% 0.00 in
15:30 74.1 °F 48.9 °F 30.10 in SSE 5.4 mph 7.6 mph 41% 0.00 in
15:35 74.8 °F 48.9 °F 30.10 in SE 5.8 mph 8.3 mph 40% 0.00 in
15:40 75.2 °F 47.9 °F 30.10 in East 4.6 mph 8.3 mph 38% 0.00 in
15:45 74.8 °F 46.8 °F 30.09 in ESE 4.4 mph 6.9 mph 37% 0.00 in
15:50 74.3 °F 47.8 °F 30.10 in SSW 5.3 mph 6.9 mph 39% 0.00 in
15:55 74.1 °F 48.9 °F 30.09 in SSW 4.4 mph 6.9 mph 41% 0.00 in
16:00 74.3 °F 48.4 °F 30.10 in South 4.5 mph 6.9 mph 40% 0.00 in
16:05 74.3 °F 48.4 °F 30.10 in South 5.4 mph 6.9 mph 40% 0.00 in
16:10 73.9 °F 46.0 °F 30.10 in South 4.9 mph 6.9 mph 37% 0.00 in
16:15 73.6 °F 47.1 °F 30.10 in South 4.6 mph 6.9 mph 39% 0.00 in
16:20 73.6 °F 47.1 °F 30.10 in SSE 4.5 mph 6.9 mph 39% 0.00 in
16:25 73.6 °F 46.4 °F 30.10 in SE 4.2 mph 6.0 mph 38% 0.00 in
16:30 73.7 °F 45.9 °F 30.09 in SE 4.1 mph 8.3 mph 37% 0.00 in
16:35 73.2 °F 46.1 °F 30.09 in SSE 4.9 mph 8.3 mph 38% 0.00 in
16:40 72.5 °F 44.8 °F 30.10 in SSE 5.1 mph 8.3 mph 37% 0.00 in
16:45 72.1 °F 45.8 °F 30.10 in SSE 3.2 mph 6.0 mph 39% 0.00 in
16:50 71.9 °F 45.7 °F 30.10 in WSW 2.1 mph 3.8 mph 39% 0.00 in
16:55 71.8 °F 46.8 °F 30.10 in SW 2.3 mph 4.5 mph 41% 0.00 in
17:00 71.8 °F 46.8 °F 30.10 in East 3.1 mph 4.5 mph 41% 0.00 in
17:05 71.8 °F 46.8 °F 30.09 in NNE 2.8 mph 4.5 mph 41% 0.00 in
17:10 71.6 °F 49.1 °F 30.10 in NNE 2.3 mph 3.8 mph 45% 0.00 in
17:16 71.2 °F 48.2 °F 30.10 in South 2.8 mph 4.5 mph 44% 0.00 in
17:21 71.0 °F 49.2 °F 30.09 in SSW 2.7 mph 4.5 mph 46% 0.00 in
17:25 70.7 °F 48.3 °F 30.10 in WSW 2.5 mph 3.8 mph 45% 0.00 in
17:31 70.7 °F 48.3 °F 30.09 in WNW 3.1 mph 6.0 mph 45% 0.00 in
17:36 70.5 °F 48.7 °F 30.09 in SW 2.9 mph 6.0 mph 46% 0.00 in
17:41 70.3 °F 48.0 °F 30.09 in SSE 2.9 mph 5.4 mph 45% 0.00 in
17:46 70.0 °F 49.9 °F 30.09 in SE 2.5 mph 5.4 mph 49% 0.00 in
17:51 70.0 °F 50.5 °F 30.09 in SSE 1.5 mph 3.1 mph 50% 0.00 in
17:56 69.2 °F 50.9 °F 30.10 in SSW 1.4 mph 3.1 mph 52% 0.00 in
18:01 68.9 °F 50.0 °F 30.10 in East 2.4 mph 3.8 mph 51% 0.00 in
18:06 68.7 °F 50.4 °F 30.10 in NE 2.8 mph 3.8 mph 52% 0.00 in
18:11 68.3 °F 50.6 °F 30.10 in NW 2.2 mph 3.1 mph 53% 0.00 in
18:16 67.8 °F 51.1 °F 30.10 in West 2.2 mph 3.1 mph 55% 0.00 in
18:21 67.6 °F 50.9 °F 30.10 in WSW 2.1 mph 3.1 mph 55% 0.00 in
18:26 67.3 °F 51.5 °F 30.10 in SW 1.9 mph 3.1 mph 57% 0.00 in
18:31 67.1 °F 53.2 °F 30.10 in West 1.7 mph 3.1 mph 61% 0.00 in
18:36 66.7 °F 53.3 °F 30.10 in NW 1.5 mph 2.2 mph 62% 0.00 in
18:41 66.2 °F 53.2 °F 30.10 in NW 1.4 mph 2.2 mph 63% 0.00 in
18:46 65.8 °F 53.3 °F 30.10 in NW 1.3 mph 2.2 mph 64% 0.00 in
18:51 65.5 °F 53.8 °F 30.10 in NW 1.2 mph 2.2 mph 66% 0.00 in
18:56 65.1 °F 53.5 °F 30.10 in NW 1.2 mph 2.2 mph 66% 0.00 in
19:01 64.9 °F 53.7 °F 30.10 in NW 0.9 mph 1.6 mph 67% 0.00 in
19:06 64.9 °F 53.7 °F 30.09 in NW 0.7 mph 1.6 mph 67% 0.00 in
19:11 64.2 °F 53.4 °F 30.10 in NW 0.9 mph 1.6 mph 68% 0.00 in
19:16 64.0 °F 53.7 °F 30.10 in NNW 1.2 mph 1.6 mph 69% 0.00 in
19:21 63.8 °F 53.5 °F 30.10 in NNW 1.1 mph 1.6 mph 69% 0.00 in
19:26 63.7 °F 53.7 °F 30.11 in NW 1.0 mph 1.6 mph 70% 0.00 in
19:31 63.3 °F 53.4 °F 30.10 in NW 1.1 mph 1.6 mph 70% 0.00 in
19:36 63.1 °F 53.6 °F 30.10 in NW 1.2 mph 1.6 mph 71% 0.00 in
19:41 62.8 °F 53.2 °F 30.10 in NW 1.1 mph 1.6 mph 71% 0.00 in
19:46 62.6 °F 53.1 °F 30.11 in NW 0.9 mph 1.6 mph 71% 0.00 in
19:51 62.4 °F 52.9 °F 30.11 in NW 0.9 mph 1.6 mph 71% 0.00 in
19:56 62.0 °F 52.9 °F 30.11 in NW 0.9 mph 1.6 mph 72% 0.00 in
20:01 61.9 °F 52.8 °F 30.11 in NW 0.7 mph 1.6 mph 72% 0.00 in
20:06 61.7 °F 52.6 °F 30.11 in NW 0.7 mph 0.7 mph 72% 0.00 in
20:11 61.5 °F 52.8 °F 30.12 in NW 0.7 mph 1.6 mph 73% 0.00 in
20:16 61.3 °F 52.6 °F 30.12 in NW 0.4 mph 1.6 mph 73% 0.00 in
20:21 61.1 °F 52.4 °F 30.12 in Calm     73% 0.00 in
20:26 61.0 °F 52.3 °F 30.12 in Calm     73% 0.00 in
20:31 60.8 °F 52.1 °F 30.13 in Calm     73% 0.00 in
20:36 60.6 °F 51.9 °F 30.13 in Calm     73% 0.00 in
20:41 60.4 °F 51.7 °F 30.13 in Calm     73% 0.00 in
20:46 60.2 °F 51.9 °F 30.13 in Calm     74% 0.00 in
20:51 60.1 °F 51.8 °F 30.13 in Calm     74% 0.00 in
20:56 59.9 °F 52.0 °F 30.13 in NW 0.1 mph 0.7 mph 75% 0.00 in
21:01 59.7 °F 51.8 °F 30.14 in NNW 0.4 mph 0.7 mph 75% 0.00 in
21:06 59.5 °F 51.6 °F 30.14 in NNW 0.6 mph 0.7 mph 75% 0.00 in
Export, Pennsylvania, USA
Compliments of Weather Underground